AFR1036 LFPG-LJLJ
Flight info
| Callsign | AFR1036 |
|---|---|
| Flight time | 1h 25m |
| Altitude | 41000 |
| Route | BUBLI DCT LUVAL DCT SHARA DCT DEVDI DCT RIPUS DCT RESIA DCT 461320N0115919E DCT SOVOX DCT KOMHO KOMHO1R |
| Aircraft | E190/M-SDE3GILORVW/S |
Departure
| Time | 2026-05-08 14:38 |
|---|---|
| Airport | Charles de Gaulle International Airport (LFPG) |
Arrival
| Time | 2026-05-08 16:03 |
|---|---|
| Airport | Ljubljana Jože Pučnik Airport (LJLJ) |
| Time | Latitude | Longitude | Altitude | Speed | Heading |
|---|---|---|---|---|---|
| 2026-05-08 14:10 | 49.00480 | 2.55719 | 336 ft | 0 kts | 10° |
| 2026-05-08 14:28 | 49.00470 | 2.55716 | 336 ft | 2 kts | 8° |
| 2026-05-08 14:28 | 49.00456 | 2.55713 | 336 ft | 2 kts | 2° |
| 2026-05-08 14:28 | 49.00440 | 2.55713 | 336 ft | 2 kts | 357° |
| 2026-05-08 14:29 | 49.00431 | 2.55714 | 336 ft | 0 kts | 354° |
| 2026-05-08 14:29 | 49.00445 | 2.55703 | 336 ft | 2 kts | 303° |
| 2026-05-08 14:29 | 49.00446 | 2.55674 | 336 ft | 2 kts | 256° |
| 2026-05-08 14:29 | 49.00445 | 2.55668 | 336 ft | 0 kts | 259° |
| 2026-05-08 14:33 | 49.00444 | 2.55661 | 336 ft | 2 kts | 261° |
| 2026-05-08 14:33 | 49.00440 | 2.55593 | 335 ft | 7 kts | 262° |
| 2026-05-08 14:34 | 49.00426 | 2.55514 | 335 ft | 8 kts | 230° |
| 2026-05-08 14:34 | 49.00372 | 2.55504 | 335 ft | 8 kts | 166° |
| 2026-05-08 14:34 | 49.00305 | 2.55534 | 335 ft | 13 kts | 163° |
| 2026-05-08 14:34 | 49.00201 | 2.55579 | 333 ft | 16 kts | 164° |
| 2026-05-08 14:35 | 49.00085 | 2.55629 | 332 ft | 17 kts | 163° |
| 2026-05-08 14:35 | 48.99967 | 2.55685 | 332 ft | 18 kts | 155° |
| 2026-05-08 14:35 | 48.99876 | 2.55798 | 330 ft | 15 kts | 173° |
| 2026-05-08 14:35 | 48.99795 | 2.55805 | 329 ft | 0 kts | 178° |
| 2026-05-08 14:36 | 48.99791 | 2.55805 | 329 ft | 2 kts | 178° |
| 2026-05-08 14:36 | 48.99772 | 2.55807 | 329 ft | 3 kts | 177° |
| 2026-05-08 14:36 | 48.99734 | 2.55810 | 329 ft | 7 kts | 175° |
| 2026-05-08 14:36 | 48.99668 | 2.55818 | 329 ft | 11 kts | 174° |
| 2026-05-08 14:37 | 48.99606 | 2.55904 | 328 ft | 15 kts | 98° |
| 2026-05-08 14:37 | 48.99614 | 2.56147 | 328 ft | 50 kts | 84° |
| 2026-05-08 14:37 | 48.99666 | 2.57075 | 326 ft | 121 kts | 84° |
| 2026-05-08 14:37 | 48.99744 | 2.58596 | 503 ft | 157 kts | 87° |
| 2026-05-08 14:38 | 48.99808 | 2.60306 | 1085 ft | 169 kts | 84° |
| 2026-05-08 14:38 | 48.99889 | 2.62016 | 2032 ft | 162 kts | 85° |
| 2026-05-08 14:38 | 48.99998 | 2.63835 | 2567 ft | 187 kts | 83° |
| 2026-05-08 14:38 | 49.00122 | 2.65934 | 3175 ft | 209 kts | 84° |
| 2026-05-08 14:39 | 49.00251 | 2.68224 | 3838 ft | 231 kts | 85° |
| 2026-05-08 14:39 | 49.00391 | 2.70815 | 4421 ft | 259 kts | 85° |
| 2026-05-08 14:39 | 49.00537 | 2.73590 | 5345 ft | 271 kts | 85° |
| 2026-05-08 14:39 | 49.00678 | 2.76445 | 6477 ft | 274 kts | 89° |
| 2026-05-08 14:40 | 49.00488 | 2.79281 | 7579 ft | 276 kts | 99° |
| 2026-05-08 14:40 | 49.00204 | 2.82157 | 8636 ft | 280 kts | 99° |
| 2026-05-08 14:40 | 48.99916 | 2.85062 | 9580 ft | 285 kts | 99° |
| 2026-05-08 14:40 | 48.99621 | 2.88049 | 10507 ft | 291 kts | 99° |
| 2026-05-08 14:41 | 48.99321 | 2.91067 | 11349 ft | 287 kts | 99° |
| 2026-05-08 14:41 | 48.99018 | 2.94114 | 12126 ft | 298 kts | 100° |
| 2026-05-08 14:41 | 48.98409 | 2.97169 | 12768 ft | 310 kts | 115° |
| 2026-05-08 14:41 | 48.97512 | 3.00204 | 13398 ft | 324 kts | 116° |
| 2026-05-08 14:42 | 48.96576 | 3.03368 | 13929 ft | 332 kts | 116° |
| 2026-05-08 14:42 | 48.95625 | 3.06573 | 14401 ft | 335 kts | 115° |
| 2026-05-08 14:42 | 48.94659 | 3.09824 | 14846 ft | 336 kts | 115° |
| 2026-05-08 14:42 | 48.93701 | 3.13047 | 15293 ft | 339 kts | 115° |
| 2026-05-08 14:43 | 48.92721 | 3.16336 | 15749 ft | 342 kts | 115° |
| 2026-05-08 14:43 | 48.91746 | 3.19605 | 16208 ft | 345 kts | 115° |
| 2026-05-08 14:43 | 48.90744 | 3.22962 | 16684 ft | 348 kts | 115° |
| 2026-05-08 14:43 | 48.89734 | 3.26337 | 17149 ft | 352 kts | 115° |
| 2026-05-08 14:44 | 48.88726 | 3.29703 | 17627 ft | 354 kts | 115° |
| 2026-05-08 14:44 | 48.87696 | 3.33136 | 18110 ft | 358 kts | 116° |
| 2026-05-08 14:44 | 48.86665 | 3.36572 | 18597 ft | 360 kts | 116° |
| 2026-05-08 14:44 | 48.85621 | 3.40039 | 19093 ft | 364 kts | 116° |
| 2026-05-08 14:45 | 48.84561 | 3.43560 | 19591 ft | 366 kts | 116° |
| 2026-05-08 14:45 | 48.83498 | 3.47082 | 20106 ft | 370 kts | 116° |
| 2026-05-08 14:45 | 48.82421 | 3.50647 | 20587 ft | 372 kts | 116° |
| 2026-05-08 14:45 | 48.81381 | 3.54260 | 21003 ft | 378 kts | 108° |
| 2026-05-08 14:46 | 48.80955 | 3.58189 | 21453 ft | 382 kts | 96° |
| 2026-05-08 14:46 | 48.80689 | 3.62258 | 21842 ft | 385 kts | 96° |
| 2026-05-08 14:46 | 48.80427 | 3.66298 | 22244 ft | 385 kts | 97° |
| 2026-05-08 14:46 | 48.80162 | 3.70365 | 22657 ft | 390 kts | 97° |
| 2026-05-08 14:47 | 48.79895 | 3.74438 | 23106 ft | 391 kts | 97° |
| 2026-05-08 14:47 | 48.79625 | 3.78543 | 23564 ft | 395 kts | 97° |
| 2026-05-08 14:47 | 48.79351 | 3.82675 | 24015 ft | 395 kts | 97° |
| 2026-05-08 14:47 | 48.79073 | 3.86849 | 24456 ft | 399 kts | 97° |
| 2026-05-08 14:48 | 48.78791 | 3.91070 | 24896 ft | 404 kts | 97° |
| 2026-05-08 14:48 | 48.78500 | 3.95387 | 25337 ft | 407 kts | 97° |
| 2026-05-08 14:48 | 48.78212 | 3.99658 | 25788 ft | 411 kts | 96° |
| 2026-05-08 14:48 | 48.77913 | 4.04055 | 26207 ft | 416 kts | 96° |
| 2026-05-08 14:49 | 48.77613 | 4.08427 | 26638 ft | 420 kts | 96° |
| 2026-05-08 14:49 | 48.77262 | 4.12874 | 27080 ft | 424 kts | 103° |
| 2026-05-08 14:49 | 48.76363 | 4.17110 | 27549 ft | 425 kts | 114° |
| 2026-05-08 14:49 | 48.74968 | 4.21098 | 27950 ft | 430 kts | 125° |
| 2026-05-08 14:50 | 48.73127 | 4.24657 | 28333 ft | 433 kts | 135° |
| 2026-05-08 14:50 | 48.71151 | 4.28137 | 28819 ft | 439 kts | 129° |
| 2026-05-08 14:50 | 48.69293 | 4.31870 | 29298 ft | 443 kts | 128° |
| 2026-05-08 14:50 | 48.67482 | 4.35653 | 29745 ft | 449 kts | 127° |
| 2026-05-08 14:51 | 48.65678 | 4.39462 | 30192 ft | 452 kts | 127° |
| 2026-05-08 14:51 | 48.63846 | 4.43339 | 30658 ft | 457 kts | 127° |
| 2026-05-08 14:51 | 48.61972 | 4.47307 | 31118 ft | 460 kts | 127° |
| 2026-05-08 14:51 | 48.60133 | 4.51193 | 31566 ft | 461 kts | 127° |
| 2026-05-08 14:52 | 48.58245 | 4.55176 | 32009 ft | 465 kts | 127° |
| 2026-05-08 14:52 | 48.54479 | 4.63108 | 32903 ft | 466 kts | 127° |
| 2026-05-08 14:52 | 48.52593 | 4.67072 | 33344 ft | 465 kts | 128° |
| 2026-05-08 14:53 | 48.50695 | 4.71051 | 33777 ft | 466 kts | 128° |
| 2026-05-08 14:53 | 48.48817 | 4.74987 | 34206 ft | 464 kts | 128° |
| 2026-05-08 14:53 | 48.46916 | 4.78963 | 34606 ft | 463 kts | 128° |
| 2026-05-08 14:53 | 48.45041 | 4.82880 | 34973 ft | 461 kts | 128° |
| 2026-05-08 14:54 | 48.43158 | 4.86806 | 35319 ft | 461 kts | 128° |
| 2026-05-08 14:54 | 48.41312 | 4.90649 | 35643 ft | 459 kts | 128° |
| 2026-05-08 14:54 | 48.39428 | 4.94568 | 36011 ft | 457 kts | 128° |
| 2026-05-08 14:54 | 48.37573 | 4.98422 | 36434 ft | 457 kts | 128° |
| 2026-05-08 14:55 | 48.35731 | 5.02241 | 36885 ft | 456 kts | 128° |
| 2026-05-08 14:55 | 48.33863 | 5.06110 | 37324 ft | 455 kts | 128° |
| 2026-05-08 14:55 | 48.32028 | 5.09905 | 37769 ft | 453 kts | 128° |
| 2026-05-08 14:55 | 48.30227 | 5.13828 | 38217 ft | 452 kts | 122° |
| 2026-05-08 14:56 | 48.28860 | 5.18024 | 38664 ft | 452 kts | 112° |
| 2026-05-08 14:56 | 48.27921 | 5.22509 | 39106 ft | 449 kts | 107° |
| 2026-05-08 14:56 | 48.27049 | 5.26992 | 39516 ft | 446 kts | 108° |
| 2026-05-08 14:56 | 48.26166 | 5.31418 | 39868 ft | 444 kts | 108° |
| 2026-05-08 14:57 | 48.25270 | 5.35872 | 40010 ft | 448 kts | 108° |
| 2026-05-08 14:57 | 48.24362 | 5.40369 | 40148 ft | 452 kts | 108° |
| 2026-05-08 14:57 | 48.23456 | 5.44848 | 40317 ft | 454 kts | 108° |
| 2026-05-08 14:57 | 48.22540 | 5.49364 | 40564 ft | 455 kts | 108° |
| 2026-05-08 14:58 | 48.21628 | 5.53849 | 40848 ft | 454 kts | 108° |
| 2026-05-08 14:58 | 48.20707 | 5.58365 | 40978 ft | 457 kts | 108° |
| 2026-05-08 14:58 | 48.19775 | 5.62928 | 40987 ft | 462 kts | 108° |
| 2026-05-08 14:59 | 48.17854 | 5.72297 | 41000 ft | 473 kts | 109° |
| 2026-05-08 14:59 | 48.14919 | 5.86538 | 40989 ft | 483 kts | 109° |
| 2026-05-08 15:00 | 48.12927 | 5.96139 | 40991 ft | 480 kts | 109° |
| 2026-05-08 15:00 | 48.10948 | 6.05642 | 40985 ft | 479 kts | 108° |
| 2026-05-08 15:01 | 48.08963 | 6.15124 | 40978 ft | 480 kts | 109° |
| 2026-05-08 15:01 | 48.06974 | 6.24574 | 40967 ft | 479 kts | 108° |
| 2026-05-08 15:02 | 48.04975 | 6.34029 | 40987 ft | 480 kts | 108° |
| 2026-05-08 15:02 | 48.02954 | 6.43548 | 40994 ft | 480 kts | 109° |
| 2026-05-08 15:03 | 48.00930 | 6.53033 | 41002 ft | 481 kts | 109° |
| 2026-05-08 15:03 | 47.98900 | 6.62505 | 41012 ft | 480 kts | 108° |
| 2026-05-08 15:04 | 47.96663 | 6.71852 | 41003 ft | 479 kts | 114° |
| 2026-05-08 15:04 | 47.94176 | 6.81051 | 41011 ft | 478 kts | 114° |
| 2026-05-08 15:05 | 47.91676 | 6.90263 | 41014 ft | 478 kts | 114° |
| 2026-05-08 15:05 | 47.89186 | 6.99398 | 41019 ft | 479 kts | 114° |
| 2026-05-08 15:06 | 47.86756 | 7.08292 | 41012 ft | 478 kts | 114° |
| 2026-05-08 15:06 | 47.84265 | 7.17354 | 41005 ft | 478 kts | 114° |
| 2026-05-08 15:07 | 47.81742 | 7.26508 | 40992 ft | 479 kts | 114° |
| 2026-05-08 15:07 | 47.79227 | 7.35599 | 40990 ft | 477 kts | 113° |
| 2026-05-08 15:08 | 47.77117 | 7.43195 | 40990 ft | 477 kts | 114° |
| 2026-05-08 15:08 | 47.74097 | 7.53712 | 40986 ft | 476 kts | 119° |
| 2026-05-08 15:09 | 47.70412 | 7.61805 | 41011 ft | 473 kts | 128° |
| 2026-05-08 15:09 | 47.66507 | 7.69677 | 41011 ft | 474 kts | 129° |
| 2026-05-08 15:10 | 47.62619 | 7.77494 | 41010 ft | 473 kts | 129° |
| 2026-05-08 15:10 | 47.58705 | 7.85339 | 41005 ft | 473 kts | 129° |
| 2026-05-08 15:11 | 47.54799 | 7.93149 | 41001 ft | 473 kts | 129° |
| 2026-05-08 15:11 | 47.50882 | 8.00958 | 40998 ft | 473 kts | 129° |
| 2026-05-08 15:12 | 47.46959 | 8.08756 | 40997 ft | 473 kts | 129° |
| 2026-05-08 15:12 | 47.43057 | 8.16491 | 41001 ft | 472 kts | 129° |
| 2026-05-08 15:13 | 47.39111 | 8.24290 | 41004 ft | 472 kts | 129° |
| 2026-05-08 15:13 | 47.35184 | 8.32032 | 41005 ft | 472 kts | 129° |
| 2026-05-08 15:14 | 47.31251 | 8.39760 | 41009 ft | 473 kts | 129° |
| 2026-05-08 15:14 | 47.27295 | 8.47513 | 41012 ft | 473 kts | 129° |
| 2026-05-08 15:15 | 47.23400 | 8.55318 | 41018 ft | 474 kts | 128° |
| 2026-05-08 15:15 | 47.19556 | 8.63098 | 41021 ft | 472 kts | 128° |
| 2026-05-08 15:16 | 47.15680 | 8.70918 | 41022 ft | 472 kts | 129° |
| 2026-05-08 15:16 | 47.11797 | 8.78730 | 41036 ft | 472 kts | 129° |
| 2026-05-08 15:17 | 47.07900 | 8.86545 | 41046 ft | 473 kts | 129° |
| 2026-05-08 15:17 | 47.04015 | 8.94316 | 41038 ft | 471 kts | 129° |
| 2026-05-08 15:18 | 47.00135 | 9.02056 | 41031 ft | 472 kts | 129° |
| 2026-05-08 15:18 | 46.96243 | 9.09796 | 41040 ft | 473 kts | 128° |
| 2026-05-08 15:19 | 46.92326 | 9.17567 | 41051 ft | 473 kts | 129° |
| 2026-05-08 15:19 | 46.88443 | 9.25248 | 41060 ft | 473 kts | 129° |
| 2026-05-08 15:20 | 46.84516 | 9.32992 | 41077 ft | 473 kts | 129° |
| 2026-05-08 15:20 | 46.80599 | 9.40698 | 41075 ft | 473 kts | 129° |
| 2026-05-08 15:21 | 46.76649 | 9.48446 | 41076 ft | 474 kts | 129° |
| 2026-05-08 15:21 | 46.72721 | 9.56128 | 41075 ft | 473 kts | 129° |
| 2026-05-08 15:22 | 46.68784 | 9.63808 | 41069 ft | 472 kts | 129° |
| 2026-05-08 15:22 | 46.64917 | 9.71330 | 41080 ft | 472 kts | 129° |
| 2026-05-08 15:23 | 46.60944 | 9.79038 | 41099 ft | 473 kts | 130° |
| 2026-05-08 15:23 | 46.56981 | 9.86704 | 41114 ft | 473 kts | 129° |
| 2026-05-08 15:24 | 46.53045 | 9.94300 | 41125 ft | 472 kts | 129° |
| 2026-05-08 15:24 | 46.49216 | 10.02061 | 41121 ft | 475 kts | 121° |
| 2026-05-08 15:25 | 46.46833 | 10.11062 | 41105 ft | 480 kts | 103° |
| 2026-05-08 15:25 | 46.45803 | 10.20607 | 41084 ft | 482 kts | 101° |
| 2026-05-08 15:26 | 46.44631 | 10.30193 | 41083 ft | 481 kts | 101° |
| 2026-05-08 15:26 | 46.43441 | 10.39692 | 41076 ft | 482 kts | 101° |
| 2026-05-08 15:27 | 46.42229 | 10.49280 | 41078 ft | 482 kts | 101° |
| 2026-05-08 15:27 | 46.41011 | 10.58854 | 41079 ft | 482 kts | 101° |
| 2026-05-08 15:28 | 46.39790 | 10.68392 | 41078 ft | 481 kts | 102° |
| 2026-05-08 15:28 | 46.38573 | 10.77826 | 41079 ft | 483 kts | 102° |
| 2026-05-08 15:29 | 46.37317 | 10.87494 | 41081 ft | 483 kts | 102° |
| 2026-05-08 15:29 | 46.36072 | 10.97014 | 41089 ft | 483 kts | 102° |
| 2026-05-08 15:30 | 46.34806 | 11.06631 | 41082 ft | 484 kts | 102° |
| 2026-05-08 15:30 | 46.33548 | 11.16125 | 41071 ft | 482 kts | 102° |
| 2026-05-08 15:31 | 46.32274 | 11.25676 | 41054 ft | 483 kts | 102° |
| 2026-05-08 15:31 | 46.30997 | 11.35174 | 41067 ft | 482 kts | 102° |
| 2026-05-08 15:32 | 46.29702 | 11.44749 | 41083 ft | 481 kts | 102° |
| 2026-05-08 15:32 | 46.28406 | 11.54267 | 41078 ft | 482 kts | 102° |
| 2026-05-08 15:33 | 46.27107 | 11.63752 | 41080 ft | 481 kts | 102° |
| 2026-05-08 15:33 | 46.25801 | 11.73222 | 41064 ft | 477 kts | 103° |
| 2026-05-08 15:34 | 46.25157 | 11.77868 | 41052 ft | 465 kts | 103° |
| 2026-05-08 15:34 | 46.24522 | 11.82435 | 41060 ft | 461 kts | 103° |
| 2026-05-08 15:34 | 46.23248 | 11.91552 | 40862 ft | 469 kts | 103° |
| 2026-05-08 15:35 | 46.22607 | 11.96124 | 40352 ft | 469 kts | 103° |
| 2026-05-08 15:35 | 46.21946 | 12.00731 | 39832 ft | 466 kts | 104° |
| 2026-05-08 15:35 | 46.21256 | 12.05291 | 39322 ft | 462 kts | 104° |
| 2026-05-08 15:35 | 46.20578 | 12.09776 | 38820 ft | 460 kts | 104° |
| 2026-05-08 15:36 | 46.19897 | 12.14279 | 38319 ft | 460 kts | 104° |
| 2026-05-08 15:36 | 46.19441 | 12.17283 | 37976 ft | 459 kts | 104° |
| 2026-05-08 15:36 | 46.18530 | 12.23272 | 37301 ft | 459 kts | 105° |
| 2026-05-08 15:36 | 46.17847 | 12.27751 | 36800 ft | 457 kts | 105° |
| 2026-05-08 15:37 | 46.17162 | 12.32217 | 36308 ft | 457 kts | 105° |
| 2026-05-08 15:37 | 46.16476 | 12.36690 | 35890 ft | 457 kts | 105° |
| 2026-05-08 15:37 | 46.15792 | 12.41134 | 35408 ft | 458 kts | 106° |
| 2026-05-08 15:37 | 46.15102 | 12.45604 | 34821 ft | 455 kts | 106° |
| 2026-05-08 15:38 | 46.14421 | 12.50007 | 34225 ft | 445 kts | 106° |
| 2026-05-08 15:38 | 46.13741 | 12.54381 | 33726 ft | 446 kts | 106° |
| 2026-05-08 15:38 | 46.13060 | 12.58757 | 33232 ft | 453 kts | 106° |
| 2026-05-08 15:38 | 46.12363 | 12.63222 | 32720 ft | 456 kts | 106° |
| 2026-05-08 15:39 | 46.11667 | 12.67669 | 32209 ft | 458 kts | 107° |
| 2026-05-08 15:39 | 46.10960 | 12.72180 | 31687 ft | 458 kts | 107° |
| 2026-05-08 15:39 | 46.10256 | 12.76648 | 31183 ft | 458 kts | 107° |
| 2026-05-08 15:39 | 46.09556 | 12.81084 | 30677 ft | 456 kts | 107° |
| 2026-05-08 15:40 | 46.08847 | 12.85560 | 30173 ft | 453 kts | 107° |
| 2026-05-08 15:40 | 46.08154 | 12.89932 | 29675 ft | 449 kts | 107° |
| 2026-05-08 15:40 | 46.07460 | 12.94289 | 29181 ft | 447 kts | 106° |
| 2026-05-08 15:40 | 46.06762 | 12.98672 | 28688 ft | 443 kts | 106° |
| 2026-05-08 15:41 | 46.06081 | 13.02931 | 28202 ft | 440 kts | 107° |
| 2026-05-08 15:41 | 46.05395 | 13.07210 | 27707 ft | 438 kts | 106° |
| 2026-05-08 15:41 | 46.04716 | 13.11433 | 27226 ft | 433 kts | 106° |
| 2026-05-08 15:41 | 46.04030 | 13.15692 | 26748 ft | 430 kts | 106° |
| 2026-05-08 15:42 | 46.03354 | 13.19879 | 26269 ft | 426 kts | 106° |
| 2026-05-08 15:42 | 46.02688 | 13.23997 | 25799 ft | 424 kts | 105° |
| 2026-05-08 15:42 | 46.02016 | 13.28135 | 25338 ft | 421 kts | 105° |
| 2026-05-08 15:42 | 46.01356 | 13.32190 | 24864 ft | 418 kts | 105° |
| 2026-05-08 15:43 | 46.00692 | 13.36263 | 24405 ft | 416 kts | 105° |
| 2026-05-08 15:43 | 46.00033 | 13.40294 | 23945 ft | 413 kts | 105° |
| 2026-05-08 15:43 | 45.99376 | 13.44298 | 23494 ft | 411 kts | 105° |
| 2026-05-08 15:43 | 45.98718 | 13.48300 | 23056 ft | 409 kts | 105° |
| 2026-05-08 15:44 | 45.98066 | 13.52257 | 22605 ft | 405 kts | 105° |
| 2026-05-08 15:44 | 45.97473 | 13.56193 | 22162 ft | 402 kts | 97° |
| 2026-05-08 15:44 | 45.97733 | 13.60145 | 21774 ft | 401 kts | 73° |
| 2026-05-08 15:44 | 45.99012 | 13.63717 | 21243 ft | 398 kts | 53° |
| 2026-05-08 15:45 | 46.00666 | 13.66855 | 20796 ft | 394 kts | 52° |
| 2026-05-08 15:45 | 46.02251 | 13.69837 | 20377 ft | 391 kts | 52° |
| 2026-05-08 15:45 | 46.03929 | 13.72985 | 19942 ft | 386 kts | 52° |
| 2026-05-08 15:45 | 46.05561 | 13.76048 | 19526 ft | 384 kts | 52° |
| 2026-05-08 15:46 | 46.07169 | 13.79071 | 19106 ft | 379 kts | 52° |
| 2026-05-08 15:46 | 46.08763 | 13.82068 | 18690 ft | 375 kts | 52° |
| 2026-05-08 15:46 | 46.10337 | 13.85032 | 18275 ft | 371 kts | 52° |
| 2026-05-08 15:46 | 46.11895 | 13.87969 | 17872 ft | 369 kts | 52° |
| 2026-05-08 15:47 | 46.13471 | 13.90943 | 17460 ft | 367 kts | 52° |
| 2026-05-08 15:47 | 46.14996 | 13.93822 | 17066 ft | 365 kts | 52° |
| 2026-05-08 15:47 | 46.16541 | 13.96742 | 16653 ft | 361 kts | 52° |
| 2026-05-08 15:47 | 46.18056 | 13.99610 | 16259 ft | 359 kts | 52° |
| 2026-05-08 15:48 | 46.21067 | 14.05320 | 15468 ft | 355 kts | 52° |
| 2026-05-08 15:48 | 46.22545 | 14.08123 | 15080 ft | 353 kts | 52° |
| 2026-05-08 15:48 | 46.23998 | 14.10978 | 14690 ft | 351 kts | 59° |
| 2026-05-08 15:49 | 46.24717 | 14.14287 | 14316 ft | 348 kts | 86° |
| 2026-05-08 15:49 | 46.24373 | 14.17746 | 13776 ft | 349 kts | 112° |
| 2026-05-08 15:49 | 46.23138 | 14.20684 | 13386 ft | 343 kts | 125° |
| 2026-05-08 15:49 | 46.21746 | 14.23455 | 12983 ft | 341 kts | 126° |
| 2026-05-08 15:50 | 46.20332 | 14.26221 | 12608 ft | 340 kts | 126° |
| 2026-05-08 15:50 | 46.18937 | 14.28933 | 12230 ft | 338 kts | 126° |
| 2026-05-08 15:50 | 46.17536 | 14.31645 | 11823 ft | 336 kts | 127° |
| 2026-05-08 15:50 | 46.16151 | 14.34322 | 11473 ft | 330 kts | 127° |
| 2026-05-08 15:51 | 46.14784 | 14.36960 | 11099 ft | 322 kts | 127° |
| 2026-05-08 15:51 | 46.13473 | 14.39486 | 10734 ft | 314 kts | 127° |
| 2026-05-08 15:51 | 46.12178 | 14.41980 | 10374 ft | 306 kts | 127° |
| 2026-05-08 15:51 | 46.10920 | 14.44402 | 9987 ft | 295 kts | 127° |
| 2026-05-08 15:52 | 46.09695 | 14.46758 | 9757 ft | 293 kts | 127° |
| 2026-05-08 15:52 | 46.08501 | 14.49102 | 9436 ft | 292 kts | 124° |
| 2026-05-08 15:52 | 46.07350 | 14.51530 | 9122 ft | 288 kts | 124° |
| 2026-05-08 15:52 | 46.06236 | 14.53883 | 8803 ft | 279 kts | 124° |
| 2026-05-08 15:53 | 46.05155 | 14.56162 | 8514 ft | 271 kts | 124° |
| 2026-05-08 15:53 | 46.04100 | 14.58384 | 8209 ft | 264 kts | 123° |
| 2026-05-08 15:53 | 46.03094 | 14.60500 | 7872 ft | 254 kts | 123° |
| 2026-05-08 15:53 | 46.02131 | 14.62525 | 7668 ft | 238 kts | 123° |
| 2026-05-08 15:54 | 46.01206 | 14.64467 | 7475 ft | 227 kts | 123° |
| 2026-05-08 15:54 | 46.00385 | 14.66357 | 7167 ft | 221 kts | 108° |
| 2026-05-08 15:54 | 46.00425 | 14.68461 | 6940 ft | 208 kts | 64° |
| 2026-05-08 15:54 | 46.01351 | 14.70000 | 6655 ft | 202 kts | 39° |
| 2026-05-08 15:55 | 46.02426 | 14.71245 | 6410 ft | 196 kts | 37° |
| 2026-05-08 15:55 | 46.04527 | 14.73528 | 5948 ft | 183 kts | 36° |
| 2026-05-08 15:55 | 46.05541 | 14.74589 | 5734 ft | 176 kts | 32° |
| 2026-05-08 15:56 | 46.06689 | 14.74924 | 5542 ft | 170 kts | 346° |
| 2026-05-08 15:56 | 46.07671 | 14.74016 | 5405 ft | 172 kts | 311° |
| 2026-05-08 15:56 | 46.08414 | 14.72695 | 5338 ft | 163 kts | 308° |
| 2026-05-08 15:56 | 46.09105 | 14.71412 | 5181 ft | 162 kts | 308° |
| 2026-05-08 15:57 | 46.09777 | 14.70144 | 4974 ft | 152 kts | 308° |
| 2026-05-08 15:57 | 46.10375 | 14.69006 | 4773 ft | 134 kts | 308° |
| 2026-05-08 15:57 | 46.10920 | 14.67961 | 4595 ft | 131 kts | 304° |
| 2026-05-08 15:57 | 46.11464 | 14.66900 | 4450 ft | 132 kts | 308° |
| 2026-05-08 15:58 | 46.12024 | 14.65826 | 4290 ft | 133 kts | 308° |
| 2026-05-08 15:58 | 46.12576 | 14.64763 | 4121 ft | 133 kts | 307° |
| 2026-05-08 15:58 | 46.13134 | 14.63680 | 3939 ft | 133 kts | 307° |
| 2026-05-08 15:58 | 46.13689 | 14.62610 | 3758 ft | 133 kts | 308° |
| 2026-05-08 15:59 | 46.14238 | 14.61544 | 3580 ft | 133 kts | 308° |
| 2026-05-08 15:59 | 46.14789 | 14.60482 | 3397 ft | 133 kts | 308° |
| 2026-05-08 15:59 | 46.15342 | 14.59408 | 3218 ft | 134 kts | 307° |
| 2026-05-08 15:59 | 46.15906 | 14.58312 | 3032 ft | 135 kts | 307° |
| 2026-05-08 16:00 | 46.16459 | 14.57236 | 2850 ft | 135 kts | 307° |
| 2026-05-08 16:00 | 46.17020 | 14.56150 | 2671 ft | 134 kts | 306° |
| 2026-05-08 16:00 | 46.17576 | 14.55071 | 2491 ft | 135 kts | 306° |
| 2026-05-08 16:00 | 46.18137 | 14.53983 | 2310 ft | 134 kts | 307° |
| 2026-05-08 16:01 | 46.18690 | 14.52905 | 2133 ft | 133 kts | 307° |
| 2026-05-08 16:01 | 46.19246 | 14.51827 | 1955 ft | 134 kts | 305° |
| 2026-05-08 16:01 | 46.19793 | 14.50763 | 1781 ft | 132 kts | 308° |
| 2026-05-08 16:01 | 46.20340 | 14.49695 | 1607 ft | 130 kts | 308° |
| 2026-05-08 16:02 | 46.20894 | 14.48619 | 1435 ft | 134 kts | 305° |
| 2026-05-08 16:02 | 46.21441 | 14.47556 | 1293 ft | 130 kts | 308° |
| 2026-05-08 16:02 | 46.21988 | 14.46509 | 1225 ft | 123 kts | 306° |
| 2026-05-08 16:02 | 46.22393 | 14.45715 | 1248 ft | 67 kts | 309° |
| 2026-05-08 16:03 | 46.22601 | 14.45416 | 1257 ft | 25 kts | 329° |
| 2026-05-08 16:03 | 46.22699 | 14.45350 | 1259 ft | 9 kts | 341° |
| 2026-05-08 16:03 | 46.22759 | 14.45327 | 1260 ft | 8 kts | 349° |
| 2026-05-08 16:03 | 46.22817 | 14.45320 | 1261 ft | 8 kts | 4° |
| 2026-05-08 16:04 | 46.22868 | 14.45347 | 1262 ft | 8 kts | 32° |
| 2026-05-08 16:04 | 46.22916 | 14.45396 | 1262 ft | 8 kts | 35° |
| 2026-05-08 16:04 | 46.22969 | 14.45437 | 1262 ft | 8 kts | 36° |
| 2026-05-08 16:04 | 46.23000 | 14.45471 | 1263 ft | 4 kts | 37° |
| 2026-05-08 16:05 | 46.23002 | 14.45472 | 1263 ft | 0 kts | 37° |